createdAt,value
2018-12-21T00:00:16.643Z,6.78
2018-12-21T00:02:47.007Z,6.88
2018-12-21T00:05:17.517Z,7.01
2018-12-21T00:07:46.282Z,6.70
2018-12-21T00:10:17.095Z,6.68
2018-12-21T00:12:47.622Z,7.01
2018-12-21T00:15:16.389Z,6.83
2018-12-21T00:17:47.097Z,6.76
2018-12-21T00:20:15.961Z,-4.83
2018-12-21T00:22:46.179Z,6.71
2018-12-21T00:25:15.681Z,6.89
2018-12-21T00:27:45.017Z,6.88
2018-12-21T00:30:18.154Z,6.94
2018-12-21T00:32:52.790Z,6.87
2018-12-21T00:35:27.636Z,6.74
2018-12-21T00:38:02.758Z,-5.93
2018-12-21T00:40:38.730Z,6.92
2018-12-21T00:43:18.206Z,6.95
2018-12-21T00:45:53.636Z,7.05
2018-12-21T00:48:23.226Z,7.52
2018-12-21T00:50:52.678Z,7.38
2018-12-21T00:53:22.168Z,7.54
2018-12-21T00:55:52.989Z,7.47
2018-12-21T00:58:23.788Z,7.35
2018-12-21T01:00:52.597Z,7.45
2018-12-21T01:03:21.429Z,7.64
2018-12-21T01:05:50.038Z,7.59
2018-12-21T01:08:19.706Z,7.97
2018-12-21T01:10:49.576Z,7.62
2018-12-21T01:13:19.850Z,7.89
2018-12-21T01:15:49.200Z,8.31
2018-12-21T01:18:18.537Z,7.95
2018-12-21T01:20:47.990Z,8.01
2018-12-21T01:23:18.438Z,8.33
2018-12-21T01:25:47.881Z,7.49
2018-12-21T01:28:17.826Z,8.02
2018-12-21T01:30:47.640Z,7.79
2018-12-21T01:33:17.386Z,7.57
2018-12-21T01:35:46.450Z,7.62
2018-12-21T01:38:15.781Z,7.79
2018-12-21T01:40:44.345Z,7.69
2018-12-21T01:43:17.187Z,7.46
2018-12-21T01:45:48.083Z,7.48
2018-12-21T01:48:17.038Z,7.44
2018-12-21T01:50:45.558Z,7.34
2018-12-21T01:53:14.911Z,7.53
2018-12-21T01:55:45.778Z,7.44
2018-12-21T01:58:15.913Z,7.48
2018-12-21T02:00:45.081Z,7.33
2018-12-21T02:03:14.478Z,7.34
2018-12-21T02:05:48.907Z,7.24
2018-12-21T02:08:20.123Z,7.39
2018-12-21T02:10:48.619Z,7.18
2018-12-21T02:13:17.132Z,7.14
2018-12-21T02:15:48.966Z,7.17
2018-12-21T02:18:20.256Z,7.15
2018-12-21T02:20:50.508Z,7.29
2018-12-21T02:23:19.936Z,7.25
2018-12-21T02:25:49.723Z,7.22
2018-12-21T02:28:20.015Z,7.55
2018-12-21T02:30:48.575Z,7.56
2018-12-21T02:33:17.214Z,7.45
2018-12-21T02:35:47.556Z,7.55
2018-12-21T02:38:17.330Z,7.75
2018-12-21T02:40:47.904Z,7.70
2018-12-21T02:43:17.411Z,7.95
2018-12-21T02:45:46.261Z,8.13
2018-12-21T02:48:22.565Z,7.89
2018-12-21T02:50:51.647Z,7.80
2018-12-21T02:53:21.399Z,7.91
2018-12-21T02:55:51.033Z,7.93
2018-12-21T02:58:20.994Z,8.17
2018-12-21T03:00:49.901Z,7.78
2018-12-21T03:03:19.886Z,7.57
2018-12-21T03:05:49.382Z,7.44
2018-12-21T03:08:21.446Z,7.45
2018-12-21T03:10:50.714Z,7.52
2018-12-21T03:13:20.551Z,7.90
2018-12-21T03:15:50.897Z,7.84
2018-12-21T03:18:20.351Z,8.17
2018-12-21T03:20:49.737Z,8.15
2018-12-21T03:23:20.901Z,8.42
2018-12-21T03:26:06.530Z,8.28
2018-12-21T03:28:35.544Z,8.17
2018-12-21T03:31:05.530Z,8.54
2018-12-21T03:33:34.682Z,8.35
2018-12-21T03:36:04.905Z,8.15
2018-12-21T03:38:33.748Z,8.33
2018-12-21T03:41:04.337Z,8.03
2018-12-21T03:43:34.197Z,8.05
2018-12-21T03:46:03.974Z,8.16
2018-12-21T03:48:32.569Z,7.94
2018-12-21T03:51:03.012Z,8.23
2018-12-21T03:53:33.729Z,8.23
2018-12-21T03:56:03.705Z,8.14
2018-12-21T03:58:32.937Z,8.40
2018-12-21T04:01:03.381Z,8.66
2018-12-21T04:03:33.654Z,8.15
2018-12-21T04:06:03.527Z,8.12
2018-12-21T04:08:32.337Z,7.80
2018-12-21T04:11:01.701Z,7.63
2018-12-21T04:13:31.247Z,7.61
2018-12-21T04:16:00.637Z,7.97
2018-12-21T04:18:29.163Z,7.61
2018-12-21T04:21:05.025Z,7.65
2018-12-21T04:23:33.546Z,7.58
2018-12-21T04:26:02.986Z,7.87
2018-12-21T04:28:32.475Z,8.01
2018-12-21T04:31:03.043Z,7.77
2018-12-21T04:33:31.715Z,7.74
2018-12-21T04:36:03.022Z,5.32
2018-12-21T04:38:34.297Z,7.84
2018-12-21T04:41:03.333Z,7.92
2018-12-21T04:43:33.001Z,7.83
2018-12-21T04:46:02.119Z,7.69
2018-12-21T04:48:31.966Z,8.00
2018-12-21T04:51:01.151Z,7.79
2018-12-21T04:53:30.332Z,7.94
2018-12-21T04:55:59.119Z,7.72
2018-12-21T04:58:28.687Z,7.82
2018-12-21T05:00:57.226Z,8.10
2018-12-21T05:03:26.413Z,8.16
2018-12-21T05:05:55.575Z,7.92
2018-12-21T05:08:26.399Z,8.00
2018-12-21T05:10:56.681Z,7.85
2018-12-21T05:13:25.706Z,7.77
2018-12-21T05:15:55.779Z,7.64
2018-12-21T05:18:25.203Z,7.71
2018-12-21T05:20:54.279Z,7.66
2018-12-21T05:23:24.107Z,7.72
2018-12-21T05:25:54.033Z,7.69
2018-12-21T05:28:24.470Z,7.65
2018-12-21T05:30:53.124Z,7.74
2018-12-21T05:33:22.931Z,5.00
2018-12-21T05:35:52.364Z,7.70
2018-12-21T05:38:23.182Z,7.84
2018-12-21T05:40:52.722Z,4.96
2018-12-21T05:43:21.473Z,7.58
2018-12-21T05:45:54.348Z,7.52
2018-12-21T05:48:23.001Z,7.28
2018-12-21T05:50:51.484Z,7.43
2018-12-21T05:53:21.129Z,7.60
2018-12-21T05:55:52.782Z,7.73
2018-12-21T05:58:22.596Z,4.77
2018-12-21T06:00:51.392Z,7.45
2018-12-21T06:03:20.813Z,7.42
2018-12-21T06:05:50.002Z,7.72
2018-12-21T06:08:20.534Z,7.57
2018-12-21T06:10:49.465Z,7.37
2018-12-21T06:13:19.096Z,7.37
2018-12-21T06:15:49.289Z,7.42
2018-12-21T06:18:22.887Z,7.39
2018-12-21T06:20:52.905Z,7.49
2018-12-21T06:23:21.452Z,7.43
2018-12-21T06:25:51.895Z,7.57
2018-12-21T06:28:22.055Z,8.12
2018-12-21T06:30:51.643Z,7.77
2018-12-21T06:33:21.200Z,7.95
2018-12-21T06:35:54.647Z,7.83
2018-12-21T06:38:23.302Z,7.71
2018-12-21T06:40:53.447Z,7.67
2018-12-21T06:43:23.973Z,7.74
2018-12-21T06:45:53.869Z,7.71
2018-12-21T06:48:23.591Z,7.66
2018-12-21T06:50:53.478Z,7.64
2018-12-21T06:53:22.624Z,7.52
2018-12-21T06:55:52.644Z,7.55
2018-12-21T06:58:21.206Z,7.60
2018-12-21T07:00:50.320Z,7.38
2018-12-21T07:03:21.520Z,7.41
2018-12-21T07:05:51.299Z,7.33
2018-12-21T07:08:19.975Z,7.36
2018-12-21T07:10:48.948Z,7.41
2018-12-21T07:13:18.563Z,7.41
2018-12-21T07:15:48.707Z,7.23
2018-12-21T07:18:18.438Z,7.25
2018-12-21T07:20:47.272Z,7.33
2018-12-21T07:23:16.774Z,7.12
2018-12-21T07:25:47.409Z,7.08
2018-12-21T07:28:18.128Z,7.14
2018-12-21T07:30:49.259Z,6.95
2018-12-21T07:33:22.018Z,6.90
2018-12-21T07:35:52.303Z,6.97
2018-12-21T07:38:21.799Z,6.94
2018-12-21T07:40:51.414Z,7.01
2018-12-21T07:43:24.310Z,6.87
2018-12-21T07:45:53.367Z,6.80
2018-12-21T07:48:22.602Z,6.82
2018-12-21T07:50:52.357Z,6.80
2018-12-21T07:53:24.586Z,6.79
2018-12-21T07:55:53.642Z,6.77
2018-12-21T07:58:24.883Z,6.71
2018-12-21T08:00:55.325Z,6.72
2018-12-21T08:03:24.966Z,6.68
2018-12-21T08:05:57.543Z,6.76
2018-12-21T08:08:27.526Z,6.65
2018-12-21T08:11:03.196Z,4.38
2018-12-21T08:13:32.300Z,6.63
2018-12-21T08:16:01.214Z,6.65
2018-12-21T08:18:31.218Z,6.78
2018-12-21T08:21:00.704Z,6.79
2018-12-21T08:23:31.238Z,6.87
2018-12-21T08:26:00.342Z,6.94
2018-12-21T08:28:31.453Z,6.91
2018-12-21T08:31:01.553Z,6.89
2018-12-21T08:33:34.977Z,6.95
2018-12-21T08:36:03.866Z,6.82
2018-12-21T08:38:34.869Z,6.94
2018-12-21T08:41:04.771Z,6.97
2018-12-21T08:43:34.429Z,6.91
2018-12-21T08:46:04.313Z,6.97
2018-12-21T08:48:34.764Z,6.95
2018-12-21T08:51:04.042Z,6.91
2018-12-21T08:53:34.813Z,6.87
2018-12-21T08:56:05.407Z,5.64
2018-12-21T08:58:34.458Z,7.04
2018-12-21T09:01:04.974Z,6.92
2018-12-21T09:03:34.734Z,6.98
2018-12-21T09:06:05.014Z,6.93
2018-12-21T09:08:34.822Z,7.04
2018-12-21T09:11:04.626Z,6.97
2018-12-21T09:13:41.195Z,7.05
2018-12-21T09:16:10.846Z,7.11
2018-12-21T09:18:40.764Z,7.27
2018-12-21T09:21:16.710Z,7.15
2018-12-21T09:23:45.887Z,7.10
2018-12-21T09:26:17.053Z,7.19
2018-12-21T09:28:45.617Z,7.11
2018-12-21T09:31:14.997Z,7.17
2018-12-21T09:33:46.188Z,7.28
2018-12-21T09:36:17.215Z,7.28
2018-12-21T09:38:48.396Z,7.18
2018-12-21T09:41:17.543Z,7.23
2018-12-21T09:43:47.875Z,7.26
2018-12-21T09:46:16.772Z,7.32
2018-12-21T09:48:46.471Z,7.30
2018-12-21T09:51:15.159Z,7.38
2018-12-21T09:53:44.658Z,7.43
2018-12-21T09:56:13.996Z,7.37
2018-12-21T09:58:43.286Z,7.60
2018-12-21T10:01:13.071Z,7.58
2018-12-21T10:03:43.532Z,7.45
2018-12-21T10:06:12.521Z,7.54
2018-12-21T10:08:42.026Z,7.48
2018-12-21T10:11:11.626Z,7.43
2018-12-21T10:13:42.590Z,7.45
2018-12-21T10:16:11.543Z,7.51
2018-12-21T10:18:42.274Z,7.56
2018-12-21T10:21:14.332Z,7.67
2018-12-21T10:23:44.635Z,7.60
2018-12-21T10:26:13.658Z,7.73
2018-12-21T10:28:42.495Z,7.80
2018-12-21T10:31:12.184Z,7.88
2018-12-21T10:33:43.616Z,7.87
2018-12-21T10:36:13.359Z,8.11
2018-12-21T10:38:44.361Z,8.20
2018-12-21T10:41:14.026Z,8.23
2018-12-21T10:43:46.083Z,8.29
2018-12-21T10:46:15.520Z,8.32
2018-12-21T10:48:44.283Z,8.52
2018-12-21T10:51:14.696Z,8.70
2018-12-21T10:53:46.676Z,8.71
2018-12-21T10:56:18.297Z,8.83
2018-12-21T10:58:49.858Z,8.97
2018-12-21T11:01:20.218Z,8.95
2018-12-21T11:03:50.476Z,9.05
2018-12-21T11:06:19.043Z,9.18
2018-12-21T11:08:47.834Z,9.31
2018-12-21T11:11:20.671Z,9.31
2018-12-21T11:13:52.708Z,9.33
2018-12-21T11:16:23.008Z,9.37
2018-12-21T11:18:55.503Z,9.39
2018-12-21T11:21:24.481Z,9.38
2018-12-21T11:23:56.501Z,9.43
2018-12-21T11:26:25.222Z,9.33
2018-12-21T11:28:54.489Z,9.07
2018-12-21T11:31:23.389Z,9.44
2018-12-21T11:33:55.222Z,9.53
2018-12-21T11:36:24.131Z,9.57
2018-12-21T11:38:54.384Z,9.57
2018-12-21T11:41:24.308Z,9.59
2018-12-21T11:43:53.341Z,9.03
2018-12-21T11:46:22.783Z,9.67
2018-12-21T11:48:54.662Z,9.62
2018-12-21T11:51:25.374Z,9.67
2018-12-21T11:53:56.633Z,9.21
2018-12-21T11:56:25.978Z,9.88
2018-12-21T11:58:54.917Z,9.98
2018-12-21T12:01:25.736Z,9.99
2018-12-21T12:03:55.654Z,9.78
2018-12-21T12:06:24.778Z,9.88
2018-12-21T12:08:54.678Z,7.25
2018-12-21T12:11:26.369Z,8.13
2018-12-21T12:13:55.900Z,9.77
2018-12-21T12:16:27.012Z,9.83
2018-12-21T12:18:56.988Z,9.68
2018-12-21T12:21:27.219Z,9.76
2018-12-21T12:28:36.707Z,9.96
2018-12-21T12:31:07.283Z,6.79
2018-12-21T12:33:37.393Z,9.83
2018-12-21T12:36:07.555Z,9.88
2018-12-21T12:38:38.711Z,8.42
2018-12-21T12:41:09.304Z,9.92
2018-12-21T12:43:39.151Z,9.92
2018-12-21T12:46:09.699Z,10.07
2018-12-21T12:48:38.684Z,9.91
2018-12-21T12:51:08.340Z,9.99
2018-12-21T12:53:38.319Z,9.92
2018-12-21T12:56:08.717Z,9.99
2018-12-21T12:58:40.053Z,10.02
2018-12-21T13:01:10.762Z,10.06
2018-12-21T13:03:41.312Z,10.05
2018-12-21T13:06:20.638Z,9.73
2018-12-21T13:08:52.228Z,10.04
2018-12-21T13:11:21.922Z,10.07
2018-12-21T13:13:59.363Z,9.93
2018-12-21T13:16:28.200Z,10.09
2018-12-21T13:18:58.554Z,10.12
2018-12-21T13:21:27.828Z,9.94
2018-12-21T13:23:57.006Z,9.91
2018-12-21T13:26:27.446Z,9.99
2018-12-21T13:28:57.540Z,9.96
2018-12-21T13:31:29.482Z,10.06
2018-12-21T13:34:00.178Z,9.86
2018-12-21T13:36:29.459Z,9.78
2018-12-21T13:39:02.228Z,9.91
2018-12-21T13:41:32.571Z,9.80
2018-12-21T13:44:02.878Z,9.73
2018-12-21T13:46:33.593Z,9.80
2018-12-21T13:49:03.767Z,9.82
2018-12-21T13:51:32.916Z,9.80
2018-12-21T13:54:01.521Z,9.86
2018-12-21T13:56:31.458Z,9.76
2018-12-21T13:59:01.519Z,9.92
2018-12-21T14:01:30.293Z,9.98
2018-12-21T14:04:00.927Z,9.77
2018-12-21T14:06:30.111Z,9.80
2018-12-21T14:09:00.561Z,9.87
2018-12-21T14:11:33.908Z,9.93
2018-12-21T14:14:02.524Z,9.92
2018-12-21T14:16:32.504Z,9.91
2018-12-21T14:19:01.675Z,10.04
2018-12-21T14:21:32.210Z,10.02
2018-12-21T14:24:00.841Z,10.08
2018-12-21T14:26:29.818Z,10.06
2018-12-21T14:28:58.780Z,10.12
2018-12-21T14:31:28.334Z,10.10
2018-12-21T14:33:57.692Z,10.09
2018-12-21T14:36:31.077Z,10.11
2018-12-21T14:38:59.949Z,10.17
2018-12-21T14:41:30.062Z,10.26
2018-12-21T14:44:03.650Z,10.12
2018-12-21T14:46:32.216Z,10.28
2018-12-21T14:49:04.933Z,10.30
2018-12-21T14:51:34.345Z,10.22
2018-12-21T14:54:03.896Z,2.38
2018-12-21T14:56:33.058Z,10.27
2018-12-21T14:59:02.003Z,10.41
2018-12-21T15:01:30.832Z,10.47
2018-12-21T15:03:59.932Z,10.41
2018-12-21T15:06:28.995Z,10.37
2018-12-21T15:08:58.378Z,10.39
2018-12-21T15:11:28.012Z,10.45
2018-12-21T15:13:56.881Z,10.53
2018-12-21T15:16:27.214Z,10.44
2018-12-21T15:18:57.230Z,10.40
2018-12-21T15:21:26.682Z,10.58
2018-12-21T15:23:56.651Z,10.48
2018-12-21T15:26:27.614Z,10.51
2018-12-21T15:28:56.444Z,10.51
2018-12-21T15:31:28.908Z,10.66
2018-12-21T15:33:58.307Z,10.48
2018-12-21T15:36:28.978Z,10.51
2018-12-21T15:38:57.751Z,10.49
2018-12-21T15:41:28.021Z,10.59
2018-12-21T15:43:57.599Z,10.64
2018-12-21T15:46:26.146Z,10.63
2018-12-21T15:48:55.766Z,10.64
2018-12-21T15:51:27.964Z,10.67
2018-12-21T15:54:00.558Z,10.61
2018-12-21T15:56:30.076Z,10.66
2018-12-21T15:58:59.163Z,10.61
2018-12-21T16:01:36.584Z,10.69
2018-12-21T16:04:02.892Z,10.77
2018-12-21T16:06:35.730Z,10.75
2018-12-21T16:09:08.901Z,10.74
2018-12-21T16:11:38.371Z,10.78
2018-12-21T16:14:12.560Z,10.94
2018-12-21T16:16:41.664Z,10.82
2018-12-21T16:19:11.641Z,10.79
2018-12-21T16:21:41.014Z,10.93
2018-12-21T16:24:12.059Z,10.91
2018-12-21T16:26:41.671Z,10.95
2018-12-21T16:29:10.399Z,11.02
2018-12-21T16:31:40.097Z,11.04
2018-12-21T16:34:10.870Z,11.01
2018-12-21T16:36:41.506Z,10.97
2018-12-21T16:39:16.326Z,11.04
2018-12-21T16:41:48.358Z,10.94
2018-12-21T16:44:18.380Z,11.09
2018-12-21T16:46:48.065Z,11.07
2018-12-21T16:49:18.257Z,11.21
2018-12-21T16:51:47.550Z,11.31
2018-12-21T16:54:17.367Z,11.23
2018-12-21T16:56:47.374Z,11.13
2018-12-21T16:59:19.231Z,11.29
2018-12-21T17:01:48.204Z,11.28
2018-12-21T17:04:21.830Z,11.24
2018-12-21T17:06:50.730Z,11.13
2018-12-21T17:09:21.012Z,11.25
2018-12-21T17:11:50.102Z,11.25
2018-12-21T17:14:20.074Z,11.11
2018-12-21T17:16:50.724Z,11.14
2018-12-21T17:19:21.894Z,11.04
2018-12-21T17:21:53.312Z,11.20
2018-12-21T17:24:24.279Z,11.13
2018-12-21T17:26:53.932Z,11.26
2018-12-21T17:29:22.579Z,11.22
2018-12-21T17:31:52.141Z,11.33
2018-12-21T17:34:22.691Z,11.26
2018-12-21T17:36:51.691Z,11.36
2018-12-21T17:39:20.322Z,11.47
2018-12-21T17:41:50.079Z,11.44
2018-12-21T17:44:18.934Z,11.31
2018-12-21T17:46:48.271Z,11.33
2018-12-21T17:49:18.003Z,11.33
2018-12-21T17:51:51.856Z,7.01
2018-12-21T17:54:21.874Z,11.45
2018-12-21T17:56:50.458Z,11.53
2018-12-21T17:59:19.620Z,11.40
2018-12-21T18:01:49.279Z,11.40
2018-12-21T18:04:21.656Z,11.30
2018-12-21T18:06:54.143Z,11.60
2018-12-21T18:09:24.476Z,11.43
2018-12-21T18:11:57.244Z,11.50
2018-12-21T18:14:27.677Z,11.36
2018-12-21T18:16:56.955Z,11.40
2018-12-21T18:19:25.822Z,11.30
2018-12-21T18:22:13.207Z,11.51
2018-12-21T18:24:42.269Z,11.32
2018-12-21T18:27:11.231Z,11.35
2018-12-21T18:29:42.852Z,11.25
2018-12-21T18:32:42.336Z,11.31
2018-12-21T18:35:15.570Z,11.31
2018-12-21T18:37:53.115Z,11.37
2018-12-21T18:40:22.160Z,11.47
2018-12-21T18:42:50.690Z,11.26
2018-12-21T18:45:19.813Z,11.25
2018-12-21T18:47:48.450Z,11.30
2018-12-21T18:50:17.918Z,11.25
2018-12-21T18:52:48.541Z,11.29
2018-12-21T18:55:19.556Z,11.34
2018-12-21T18:57:49.644Z,11.21
2018-12-21T19:00:19.806Z,11.18
2018-12-21T19:02:49.679Z,11.26
2018-12-21T19:05:18.833Z,11.17
2018-12-21T19:07:49.764Z,11.11
2018-12-21T19:10:21.068Z,11.26
2018-12-21T19:12:50.781Z,11.30
2018-12-21T19:15:22.564Z,11.16
2018-12-21T19:18:00.051Z,11.21
2018-12-21T19:20:30.505Z,11.17
2018-12-21T19:23:01.075Z,11.08
2018-12-21T19:25:33.341Z,11.21
2018-12-21T19:28:04.195Z,11.28
2018-12-21T19:30:35.464Z,11.30
2018-12-21T19:33:05.281Z,11.23
2018-12-21T19:35:34.361Z,11.28
2018-12-21T19:38:06.622Z,11.24
2018-12-21T19:40:36.726Z,7.31
2018-12-21T19:43:06.275Z,11.21
2018-12-21T19:45:35.823Z,11.21
2018-12-21T19:48:06.607Z,11.23
2018-12-21T19:50:37.701Z,11.17
2018-12-21T19:53:08.543Z,11.32
2018-12-21T19:55:46.443Z,11.25
2018-12-21T19:58:14.981Z,11.34
2018-12-21T20:00:44.594Z,11.12
2018-12-21T20:03:15.080Z,11.26
2018-12-21T20:05:45.299Z,11.25
2018-12-21T20:08:14.637Z,11.15
2018-12-21T20:10:44.497Z,11.22
2018-12-21T20:13:13.561Z,11.17
2018-12-21T20:15:43.265Z,11.19
2018-12-21T20:18:12.064Z,11.16
2018-12-21T20:20:41.368Z,11.17
2018-12-21T20:23:11.202Z,11.07
2018-12-21T20:25:41.679Z,11.09
2018-12-21T20:28:12.959Z,11.01
2018-12-21T20:30:42.905Z,11.19
2018-12-21T20:33:11.786Z,11.10
2018-12-21T20:35:41.414Z,11.07
2018-12-21T20:38:11.504Z,11.14
2018-12-21T20:40:41.583Z,11.23
2018-12-21T20:43:11.162Z,11.20
2018-12-21T20:45:41.270Z,11.14
2018-12-21T20:48:10.387Z,11.08
2018-12-21T20:50:40.425Z,11.31
2018-12-21T20:53:10.405Z,11.23
2018-12-21T20:55:42.994Z,11.21
2018-12-21T20:59:20.649Z,11.14
2018-12-21T21:01:49.539Z,11.11
2018-12-21T21:04:19.607Z,11.22
2018-12-21T21:06:49.418Z,11.18
2018-12-21T21:09:18.266Z,11.10
2018-12-21T21:11:48.318Z,11.02
2018-12-21T21:14:18.316Z,10.99
2018-12-21T21:16:49.042Z,11.09
2018-12-21T21:19:18.989Z,10.97
2018-12-21T21:21:47.524Z,10.88
2018-12-21T21:24:16.542Z,11.08
2018-12-21T21:26:46.138Z,11.15
2018-12-21T21:29:18.298Z,11.01
2018-12-21T21:31:47.879Z,11.13
2018-12-21T21:34:19.864Z,10.96
2018-12-21T21:36:50.548Z,11.06
2018-12-21T21:39:23.355Z,10.99
2018-12-21T21:41:53.112Z,11.24
2018-12-21T21:44:23.079Z,11.23
2018-12-21T21:46:52.827Z,11.16
2018-12-21T21:49:22.499Z,11.16
2018-12-21T21:51:51.763Z,11.30
2018-12-21T21:54:22.833Z,11.24
2018-12-21T21:56:53.064Z,11.57
2018-12-21T21:59:23.221Z,11.32
2018-12-21T22:01:54.067Z,11.17
2018-12-21T22:04:23.256Z,11.27
2018-12-21T22:06:52.353Z,11.06
2018-12-21T22:09:23.210Z,11.26
2018-12-21T22:11:53.829Z,11.12
2018-12-21T22:14:22.890Z,11.08
2018-12-21T22:16:58.900Z,11.28
2018-12-21T22:19:28.011Z,11.61
2018-12-21T22:21:57.745Z,11.30
2018-12-21T22:24:29.112Z,11.25
2018-12-21T22:26:58.184Z,11.33
2018-12-21T22:29:27.255Z,11.49
2018-12-21T22:31:56.044Z,11.33
2018-12-21T22:34:27.096Z,11.40
2018-12-21T22:36:57.862Z,11.42
2018-12-21T22:39:31.584Z,11.36
2018-12-21T22:42:00.626Z,11.51
2018-12-21T22:44:31.658Z,11.70
2018-12-21T22:47:02.126Z,11.44
2018-12-21T22:49:33.771Z,11.33
2018-12-21T22:52:03.228Z,11.45
2018-12-21T22:54:32.533Z,11.23
2018-12-21T22:57:02.617Z,11.70
2018-12-21T22:59:32.372Z,11.57
2018-12-21T23:02:02.194Z,11.49
2018-12-21T23:04:32.104Z,11.33
2018-12-21T23:07:01.287Z,11.49
2018-12-21T23:09:33.604Z,11.56
2018-12-21T23:12:03.270Z,11.46
2018-12-21T23:14:32.992Z,11.57
2018-12-21T23:17:02.079Z,11.51
2018-12-21T23:19:31.118Z,11.64
2018-12-21T23:22:01.209Z,11.62
2018-12-21T23:24:31.624Z,11.96
2018-12-21T23:27:03.508Z,12.04
2018-12-21T23:29:33.800Z,11.98
2018-12-21T23:32:03.506Z,12.06
2018-12-21T23:34:33.624Z,12.23
2018-12-21T23:37:05.354Z,11.90
2018-12-21T23:39:37.353Z,11.97
2018-12-21T23:42:08.488Z,11.76
2018-12-21T23:44:39.021Z,11.91
2018-12-21T23:47:07.666Z,11.52
2018-12-21T23:49:38.846Z,11.61
2018-12-21T23:52:07.698Z,11.62
2018-12-21T23:54:38.338Z,11.40
2018-12-21T23:57:06.886Z,11.75
2018-12-21T23:59:35.779Z,11.88
